Terminal Aerodrome Forecast
Issued by NWS Duluth, MN

Home | Current Version | Previous Version | Text Only | Print | Product List | Glossary On
Versions: 1 2 3 4 5 6 7 8 9 10 11 12 13 14 15 16 17 18 19 20 21 22 23 24 25
624
FTUS43 KDLH 241140
TAFINL
TAF
KINL 241140Z 2412/2512 33005KT 6SM BR BKN027
     FM241800 02007KT P6SM OVC020
     FM242300 04005KT P6SM SCT035
     FM250800 VRB03KT P6SM BKN015=

USA.gov is the U.S. government's official web portal to all federal, state and local government web resources and services.